ITT1041 LIEA-LIET
Flight info
| Callsign | ITT1041 |
|---|---|
| Flight time | 0h 50m |
| Altitude | 9000 |
| Route | 404143N0081943E 403654N0082838E 402820N0083249E DCT 400801N0091211E/N0108F100 401034N0091742E/N0109F090 DCT 395618N0092848E DCT 395802N0093436E |
| Aircraft | C172/L-SFG/C |
Departure
| Time | 2026-05-08 06:32 |
|---|---|
| Airport | Alghero-Fertilia Airport (LIEA) |
Arrival
| Time | 2026-05-08 07:23 |
|---|---|
| Airport | Tortolì Airport (LIET) |
| Time | Latitude | Longitude | Altitude | Speed | Heading |
|---|---|---|---|---|---|
| 2026-05-08 06:20 | 40.62808 | 8.29141 | 69 ft | 0 kts | 297° |
| 2026-05-08 06:25 | 40.62808 | 8.29140 | 73 ft | 1 kts | 297° |
| 2026-05-08 06:25 | 40.62813 | 8.29095 | 73 ft | 8 kts | 239° |
| 2026-05-08 06:25 | 40.62752 | 8.29051 | 69 ft | 12 kts | 203° |
| 2026-05-08 06:26 | 40.62671 | 8.29000 | 67 ft | 14 kts | 205° |
| 2026-05-08 06:26 | 40.62571 | 8.28952 | 66 ft | 17 kts | 205° |
| 2026-05-08 06:26 | 40.62462 | 8.28876 | 68 ft | 19 kts | 203° |
| 2026-05-08 06:26 | 40.62333 | 8.28804 | 65 ft | 21 kts | 199° |
| 2026-05-08 06:27 | 40.62198 | 8.28715 | 63 ft | 23 kts | 205° |
| 2026-05-08 06:27 | 40.62050 | 8.28625 | 67 ft | 24 kts | 208° |
| 2026-05-08 06:27 | 40.61903 | 8.28562 | 66 ft | 20 kts | 178° |
| 2026-05-08 06:27 | 40.61923 | 8.28509 | 66 ft | 11 kts | 339° |
| 2026-05-08 06:28 | 40.61933 | 8.28504 | 64 ft | 0 kts | 340° |
| 2026-05-08 06:29 | 40.61935 | 8.28488 | 63 ft | 8 kts | 249° |
| 2026-05-08 06:30 | 40.61935 | 8.28432 | 65 ft | 11 kts | 301° |
| 2026-05-08 06:30 | 40.62003 | 8.28379 | 63 ft | 12 kts | 343° |
| 2026-05-08 06:30 | 40.62081 | 8.28400 | 67 ft | 9 kts | 23° |
| 2026-05-08 06:30 | 40.62087 | 8.28403 | 63 ft | 0 kts | 22° |
| 2026-05-08 06:31 | 40.62200 | 8.28472 | 68 ft | 42 kts | 24° |
| 2026-05-08 06:31 | 40.62595 | 8.28706 | 117 ft | 72 kts | 26° |
| 2026-05-08 06:31 | 40.63055 | 8.28922 | 327 ft | 74 kts | 22° |
| 2026-05-08 06:32 | 40.63543 | 8.29160 | 515 ft | 75 kts | 22° |
| 2026-05-08 06:32 | 40.64015 | 8.29382 | 796 ft | 70 kts | 22° |
| 2026-05-08 06:32 | 40.64493 | 8.29641 | 967 ft | 77 kts | 25° |
| 2026-05-08 06:32 | 40.64984 | 8.29948 | 1185 ft | 78 kts | 31° |
| 2026-05-08 06:33 | 40.65499 | 8.30271 | 1376 ft | 86 kts | 27° |
| 2026-05-08 06:33 | 40.66052 | 8.30616 | 1590 ft | 88 kts | 26° |
| 2026-05-08 06:33 | 40.66623 | 8.30934 | 1807 ft | 91 kts | 24° |
| 2026-05-08 06:33 | 40.67193 | 8.31312 | 2007 ft | 93 kts | 28° |
| 2026-05-08 06:34 | 40.67784 | 8.31745 | 2066 ft | 100 kts | 30° |
| 2026-05-08 06:34 | 40.68426 | 8.32213 | 2056 ft | 111 kts | 30° |
| 2026-05-08 06:34 | 40.69025 | 8.32870 | 2031 ft | 117 kts | 61° |
| 2026-05-08 06:34 | 40.69150 | 8.33918 | 1974 ft | 120 kts | 105° |
| 2026-05-08 06:35 | 40.68715 | 8.34842 | 1948 ft | 120 kts | 137° |
| 2026-05-08 06:35 | 40.68095 | 8.35563 | 1962 ft | 119 kts | 134° |
| 2026-05-08 06:35 | 40.67561 | 8.36410 | 1909 ft | 122 kts | 127° |
| 2026-05-08 06:35 | 40.67017 | 8.37331 | 1790 ft | 125 kts | 127° |
| 2026-05-08 06:36 | 40.66504 | 8.38207 | 1833 ft | 120 kts | 127° |
| 2026-05-08 06:36 | 40.66012 | 8.39099 | 1814 ft | 121 kts | 124° |
| 2026-05-08 06:36 | 40.65528 | 8.39987 | 1833 ft | 118 kts | 124° |
| 2026-05-08 06:36 | 40.65006 | 8.40843 | 1780 ft | 121 kts | 131° |
| 2026-05-08 06:37 | 40.64404 | 8.41612 | 1766 ft | 121 kts | 137° |
| 2026-05-08 06:37 | 40.63838 | 8.42421 | 1765 ft | 120 kts | 125° |
| 2026-05-08 06:37 | 40.63360 | 8.43314 | 1778 ft | 119 kts | 123° |
| 2026-05-08 06:37 | 40.62899 | 8.44220 | 1756 ft | 120 kts | 123° |
| 2026-05-08 06:38 | 40.62378 | 8.45092 | 1740 ft | 121 kts | 130° |
| 2026-05-08 06:38 | 40.61824 | 8.45905 | 1779 ft | 119 kts | 130° |
| 2026-05-08 06:38 | 40.61337 | 8.46790 | 1760 ft | 121 kts | 127° |
| 2026-05-08 06:38 | 40.60694 | 8.47508 | 1765 ft | 121 kts | 148° |
| 2026-05-08 06:39 | 40.59910 | 8.47929 | 1818 ft | 122 kts | 161° |
| 2026-05-08 06:39 | 40.59102 | 8.48281 | 1831 ft | 124 kts | 158° |
| 2026-05-08 06:39 | 40.58312 | 8.48721 | 1896 ft | 121 kts | 154° |
| 2026-05-08 06:39 | 40.57560 | 8.49231 | 1908 ft | 123 kts | 152° |
| 2026-05-08 06:40 | 40.56804 | 8.49773 | 1925 ft | 124 kts | 145° |
| 2026-05-08 06:40 | 40.56102 | 8.50415 | 1944 ft | 122 kts | 142° |
| 2026-05-08 06:40 | 40.55318 | 8.50882 | 1917 ft | 128 kts | 166° |
| 2026-05-08 06:40 | 40.54448 | 8.51069 | 1957 ft | 122 kts | 170° |
| 2026-05-08 06:41 | 40.53600 | 8.51285 | 1926 ft | 129 kts | 167° |
| 2026-05-08 06:41 | 40.52759 | 8.51500 | 2022 ft | 119 kts | 164° |
| 2026-05-08 06:41 | 40.51971 | 8.51930 | 1947 ft | 125 kts | 152° |
| 2026-05-08 06:41 | 40.51212 | 8.52441 | 1995 ft | 120 kts | 152° |
| 2026-05-08 06:42 | 40.50466 | 8.52947 | 1958 ft | 122 kts | 152° |
| 2026-05-08 06:42 | 40.49697 | 8.53457 | 1926 ft | 124 kts | 148° |
| 2026-05-08 06:42 | 40.48950 | 8.53983 | 1974 ft | 121 kts | 150° |
| 2026-05-08 06:42 | 40.48181 | 8.54456 | 1935 ft | 124 kts | 156° |
| 2026-05-08 06:43 | 40.47398 | 8.54922 | 1941 ft | 122 kts | 146° |
| 2026-05-08 06:43 | 40.46844 | 8.55718 | 1929 ft | 120 kts | 113° |
| 2026-05-08 06:43 | 40.46436 | 8.56696 | 1909 ft | 121 kts | 123° |
| 2026-05-08 06:43 | 40.45930 | 8.57529 | 1947 ft | 118 kts | 127° |
| 2026-05-08 06:44 | 40.45365 | 8.58336 | 1918 ft | 121 kts | 131° |
| 2026-05-08 06:44 | 40.44777 | 8.59116 | 1932 ft | 121 kts | 134° |
| 2026-05-08 06:44 | 40.44183 | 8.59910 | 1915 ft | 122 kts | 127° |
| 2026-05-08 06:44 | 40.43766 | 8.60845 | 1922 ft | 118 kts | 108° |
| 2026-05-08 06:45 | 40.43487 | 8.61872 | 1897 ft | 122 kts | 116° |
| 2026-05-08 06:45 | 40.43003 | 8.62798 | 1908 ft | 123 kts | 125° |
| 2026-05-08 06:45 | 40.42538 | 8.63700 | 1993 ft | 117 kts | 122° |
| 2026-05-08 06:45 | 40.42056 | 8.64583 | 1967 ft | 123 kts | 128° |
| 2026-05-08 06:46 | 40.41582 | 8.65503 | 2024 ft | 122 kts | 117° |
| 2026-05-08 06:46 | 40.41177 | 8.66464 | 2013 ft | 122 kts | 117° |
| 2026-05-08 06:46 | 40.40743 | 8.67410 | 1982 ft | 121 kts | 123° |
| 2026-05-08 06:46 | 40.40248 | 8.68301 | 2027 ft | 120 kts | 124° |
| 2026-05-08 06:47 | 40.39743 | 8.69127 | 2163 ft | 111 kts | 128° |
| 2026-05-08 06:47 | 40.39188 | 8.69866 | 2184 ft | 116 kts | 134° |
| 2026-05-08 06:47 | 40.38674 | 8.70653 | 2277 ft | 111 kts | 119° |
| 2026-05-08 06:47 | 40.38355 | 8.71577 | 2294 ft | 112 kts | 112° |
| 2026-05-08 06:48 | 40.38054 | 8.72519 | 2332 ft | 112 kts | 112° |
| 2026-05-08 06:48 | 40.37661 | 8.73390 | 2429 ft | 111 kts | 126° |
| 2026-05-08 06:48 | 40.37184 | 8.74195 | 2476 ft | 113 kts | 128° |
| 2026-05-08 06:48 | 40.36706 | 8.75002 | 2537 ft | 110 kts | 126° |
| 2026-05-08 06:49 | 40.36252 | 8.75786 | 2642 ft | 107 kts | 127° |
| 2026-05-08 06:49 | 40.35792 | 8.76569 | 2688 ft | 113 kts | 126° |
| 2026-05-08 06:49 | 40.35322 | 8.77406 | 2732 ft | 114 kts | 126° |
| 2026-05-08 06:49 | 40.34868 | 8.78279 | 2715 ft | 115 kts | 121° |
| 2026-05-08 06:50 | 40.34409 | 8.79075 | 2845 ft | 107 kts | 140° |
| 2026-05-08 06:50 | 40.33720 | 8.79423 | 2883 ft | 110 kts | 176° |
| 2026-05-08 06:50 | 40.32934 | 8.79274 | 2866 ft | 117 kts | 196° |
| 2026-05-08 06:50 | 40.32165 | 8.78804 | 2737 ft | 127 kts | 210° |
| 2026-05-08 06:51 | 40.31408 | 8.78252 | 2756 ft | 122 kts | 206° |
| 2026-05-08 06:51 | 40.30601 | 8.77844 | 2697 ft | 127 kts | 200° |
| 2026-05-08 06:51 | 40.29795 | 8.77434 | 2710 ft | 122 kts | 200° |
| 2026-05-08 06:51 | 40.28978 | 8.77101 | 2651 ft | 124 kts | 194° |
| 2026-05-08 06:52 | 40.28125 | 8.76919 | 2592 ft | 125 kts | 183° |
| 2026-05-08 06:52 | 40.27332 | 8.77228 | 2581 ft | 119 kts | 132° |
| 2026-05-08 06:52 | 40.26970 | 8.78187 | 2478 ft | 122 kts | 90° |
| 2026-05-08 06:52 | 40.27211 | 8.79245 | 2378 ft | 121 kts | 76° |
| 2026-05-08 06:53 | 40.27139 | 8.80356 | 2274 ft | 123 kts | 102° |
| 2026-05-08 06:53 | 40.26941 | 8.81422 | 2282 ft | 120 kts | 102° |
| 2026-05-08 06:53 | 40.26778 | 8.82500 | 2261 ft | 120 kts | 94° |
| 2026-05-08 06:53 | 40.26805 | 8.83592 | 2233 ft | 120 kts | 84° |
| 2026-05-08 06:54 | 40.26813 | 8.84687 | 2202 ft | 121 kts | 96° |
| 2026-05-08 06:54 | 40.26675 | 8.85768 | 2196 ft | 120 kts | 98° |
| 2026-05-08 06:54 | 40.26569 | 8.86846 | 2171 ft | 120 kts | 92° |
| 2026-05-08 06:54 | 40.26556 | 8.87923 | 2167 ft | 118 kts | 87° |
| 2026-05-08 06:55 | 40.26550 | 8.89006 | 2134 ft | 120 kts | 91° |
| 2026-05-08 06:55 | 40.26551 | 8.90089 | 2117 ft | 119 kts | 84° |
| 2026-05-08 06:55 | 40.26764 | 8.91132 | 2067 ft | 119 kts | 63° |
| 2026-05-08 06:55 | 40.26921 | 8.92210 | 1919 ft | 128 kts | 100° |
| 2026-05-08 06:56 | 40.26732 | 8.93288 | 2006 ft | 116 kts | 102° |
| 2026-05-08 06:56 | 40.26594 | 8.94380 | 1840 ft | 127 kts | 94° |
| 2026-05-08 06:56 | 40.26570 | 8.95498 | 1841 ft | 119 kts | 86° |
| 2026-05-08 06:56 | 40.26485 | 8.96580 | 1817 ft | 121 kts | 113° |
| 2026-05-08 06:57 | 40.25972 | 8.97465 | 1766 ft | 125 kts | 133° |
| 2026-05-08 06:57 | 40.25357 | 8.98279 | 1705 ft | 126 kts | 135° |
| 2026-05-08 06:57 | 40.24767 | 8.99097 | 1722 ft | 122 kts | 129° |
| 2026-05-08 06:57 | 40.24359 | 9.00033 | 1749 ft | 119 kts | 103° |
| 2026-05-08 06:58 | 40.24155 | 9.01133 | 1628 ft | 126 kts | 100° |
| 2026-05-08 06:58 | 40.24025 | 9.02232 | 1660 ft | 120 kts | 97° |
| 2026-05-08 06:58 | 40.23898 | 9.03332 | 1575 ft | 125 kts | 102° |
| 2026-05-08 06:58 | 40.23523 | 9.04353 | 1531 ft | 125 kts | 127° |
| 2026-05-08 06:59 | 40.22914 | 9.05146 | 1525 ft | 123 kts | 138° |
| 2026-05-08 06:59 | 40.22332 | 9.05961 | 1482 ft | 124 kts | 130° |
| 2026-05-08 06:59 | 40.21637 | 9.06649 | 1428 ft | 127 kts | 154° |
| 2026-05-08 06:59 | 40.21044 | 9.07339 | 1591 ft | 111 kts | 106° |
| 2026-05-08 07:00 | 40.21119 | 9.08369 | 1509 ft | 120 kts | 77° |
| 2026-05-08 07:00 | 40.21277 | 9.09437 | 1493 ft | 120 kts | 77° |
| 2026-05-08 07:00 | 40.21454 | 9.10501 | 1490 ft | 119 kts | 91° |
| 2026-05-08 07:00 | 40.21157 | 9.11467 | 1540 ft | 115 kts | 139° |
| 2026-05-08 07:01 | 40.20526 | 9.12085 | 1626 ft | 110 kts | 139° |
| 2026-05-08 07:01 | 40.19965 | 9.12815 | 1675 ft | 106 kts | 137° |
| 2026-05-08 07:01 | 40.19638 | 9.13572 | 1862 ft | 100 kts | 101° |
| 2026-05-08 07:01 | 40.19943 | 9.14252 | 1896 ft | 106 kts | 8° |
| 2026-05-08 07:02 | 40.20627 | 9.13863 | 1888 ft | 112 kts | 319° |
| 2026-05-08 07:02 | 40.21208 | 9.13192 | 1944 ft | 111 kts | 326° |
| 2026-05-08 07:02 | 40.21929 | 9.12832 | 1966 ft | 113 kts | 354° |
| 2026-05-08 07:02 | 40.22650 | 9.13100 | 2064 ft | 109 kts | 31° |
| 2026-05-08 07:03 | 40.23284 | 9.13685 | 2080 ft | 113 kts | 38° |
| 2026-05-08 07:03 | 40.23848 | 9.14414 | 2087 ft | 115 kts | 56° |
| 2026-05-08 07:03 | 40.24202 | 9.15339 | 2129 ft | 114 kts | 66° |
| 2026-05-08 07:03 | 40.24505 | 9.16288 | 2208 ft | 111 kts | 71° |
| 2026-05-08 07:04 | 40.24728 | 9.17231 | 2316 ft | 106 kts | 76° |
| 2026-05-08 07:04 | 40.24837 | 9.18156 | 2445 ft | 102 kts | 89° |
| 2026-05-08 07:04 | 40.24792 | 9.19077 | 2559 ft | 100 kts | 98° |
| 2026-05-08 07:04 | 40.24698 | 9.19971 | 2666 ft | 100 kts | 97° |
| 2026-05-08 07:05 | 40.24457 | 9.20831 | 2744 ft | 101 kts | 123° |
| 2026-05-08 07:05 | 40.24019 | 9.21519 | 2879 ft | 96 kts | 134° |
| 2026-05-08 07:05 | 40.23525 | 9.22162 | 2913 ft | 102 kts | 131° |
| 2026-05-08 07:05 | 40.23030 | 9.22812 | 3036 ft | 100 kts | 133° |
| 2026-05-08 07:06 | 40.22536 | 9.23494 | 3114 ft | 103 kts | 131° |
| 2026-05-08 07:06 | 40.22067 | 9.24186 | 3149 ft | 101 kts | 127° |
| 2026-05-08 07:06 | 40.21644 | 9.24879 | 3228 ft | 97 kts | 128° |
| 2026-05-08 07:06 | 40.21195 | 9.25530 | 3322 ft | 98 kts | 133° |
| 2026-05-08 07:07 | 40.20725 | 9.26195 | 3438 ft | 99 kts | 131° |
| 2026-05-08 07:07 | 40.20238 | 9.26844 | 3547 ft | 101 kts | 136° |
| 2026-05-08 07:07 | 40.19714 | 9.27452 | 3682 ft | 100 kts | 136° |
| 2026-05-08 07:07 | 40.19159 | 9.28036 | 3770 ft | 105 kts | 143° |
| 2026-05-08 07:08 | 40.18486 | 9.28596 | 3541 ft | 127 kts | 147° |
| 2026-05-08 07:08 | 40.17748 | 9.29144 | 3613 ft | 116 kts | 152° |
| 2026-05-08 07:08 | 40.17020 | 9.29628 | 3535 ft | 121 kts | 147° |
| 2026-05-08 07:08 | 40.16321 | 9.30254 | 3533 ft | 119 kts | 142° |
| 2026-05-08 07:09 | 40.15595 | 9.30773 | 3521 ft | 122 kts | 158° |
| 2026-05-08 07:09 | 40.14811 | 9.31163 | 3559 ft | 117 kts | 153° |
| 2026-05-08 07:09 | 40.14120 | 9.31741 | 3495 ft | 122 kts | 147° |
| 2026-05-08 07:09 | 40.13339 | 9.32190 | 3509 ft | 120 kts | 160° |
| 2026-05-08 07:10 | 40.12616 | 9.32642 | 3501 ft | 119 kts | 142° |
| 2026-05-08 07:10 | 40.11980 | 9.33349 | 3482 ft | 117 kts | 145° |
| 2026-05-08 07:10 | 40.11240 | 9.33756 | 3492 ft | 116 kts | 161° |
| 2026-05-08 07:10 | 40.10527 | 9.34150 | 3581 ft | 109 kts | 150° |
| 2026-05-08 07:11 | 40.09869 | 9.34626 | 3690 ft | 104 kts | 151° |
| 2026-05-08 07:11 | 40.09206 | 9.35043 | 3734 ft | 106 kts | 159° |
| 2026-05-08 07:11 | 40.08545 | 9.35396 | 3898 ft | 99 kts | 159° |
| 2026-05-08 07:11 | 40.07935 | 9.35662 | 4140 ft | 87 kts | 160° |
| 2026-05-08 07:12 | 40.07361 | 9.35946 | 4212 ft | 97 kts | 152° |
| 2026-05-08 07:12 | 40.06615 | 9.36176 | 4070 ft | 118 kts | 181° |
| 2026-05-08 07:12 | 40.05798 | 9.36199 | 4104 ft | 118 kts | 173° |
| 2026-05-08 07:12 | 40.04998 | 9.36489 | 4042 ft | 124 kts | 156° |
| 2026-05-08 07:13 | 40.04229 | 9.37012 | 4041 ft | 121 kts | 149° |
| 2026-05-08 07:13 | 40.03529 | 9.37638 | 3993 ft | 123 kts | 141° |
| 2026-05-08 07:13 | 40.02850 | 9.38346 | 3877 ft | 126 kts | 147° |
| 2026-05-08 07:13 | 40.02077 | 9.38860 | 3863 ft | 123 kts | 149° |
| 2026-05-08 07:14 | 40.01402 | 9.39586 | 3734 ft | 129 kts | 140° |
| 2026-05-08 07:14 | 40.00691 | 9.40230 | 3781 ft | 121 kts | 148° |
| 2026-05-08 07:14 | 39.99968 | 9.40822 | 3717 ft | 125 kts | 148° |
| 2026-05-08 07:14 | 39.99253 | 9.41465 | 3690 ft | 123 kts | 141° |
| 2026-05-08 07:15 | 39.98603 | 9.42182 | 3667 ft | 123 kts | 138° |
| 2026-05-08 07:15 | 39.98181 | 9.42703 | 3634 ft | 124 kts | 135° |
| 2026-05-08 07:15 | 39.97563 | 9.43487 | 3605 ft | 124 kts | 137° |
| 2026-05-08 07:15 | 39.96933 | 9.44246 | 3578 ft | 123 kts | 136° |
| 2026-05-08 07:16 | 39.96050 | 9.45193 | 3547 ft | 123 kts | 145° |
| 2026-05-08 07:16 | 39.95588 | 9.45641 | 3549 ft | 122 kts | 141° |
| 2026-05-08 07:16 | 39.94937 | 9.46375 | 3527 ft | 124 kts | 133° |
| 2026-05-08 07:16 | 39.94382 | 9.47201 | 3561 ft | 119 kts | 118° |
| 2026-05-08 07:17 | 39.94158 | 9.48208 | 3559 ft | 118 kts | 93° |
| 2026-05-08 07:17 | 39.94203 | 9.49260 | 3530 ft | 117 kts | 78° |
| 2026-05-08 07:17 | 39.94354 | 9.50338 | 3373 ft | 121 kts | 76° |
| 2026-05-08 07:17 | 39.94573 | 9.51374 | 3294 ft | 118 kts | 71° |
| 2026-05-08 07:18 | 39.94800 | 9.52430 | 3074 ft | 125 kts | 71° |
| 2026-05-08 07:18 | 39.95055 | 9.53534 | 2822 ft | 129 kts | 70° |
| 2026-05-08 07:18 | 39.95272 | 9.54676 | 2485 ft | 129 kts | 76° |
| 2026-05-08 07:18 | 39.95399 | 9.55812 | 2208 ft | 127 kts | 80° |
| 2026-05-08 07:19 | 39.95492 | 9.56918 | 2040 ft | 121 kts | 82° |
| 2026-05-08 07:19 | 39.95605 | 9.58046 | 1680 ft | 135 kts | 80° |
| 2026-05-08 07:19 | 39.95683 | 9.59244 | 1551 ft | 124 kts | 85° |
| 2026-05-08 07:19 | 39.95716 | 9.60328 | 1540 ft | 116 kts | 86° |
| 2026-05-08 07:20 | 39.95724 | 9.61374 | 1472 ft | 113 kts | 89° |
| 2026-05-08 07:20 | 39.95552 | 9.62333 | 1467 ft | 105 kts | 115° |
| 2026-05-08 07:20 | 39.95032 | 9.62987 | 1332 ft | 110 kts | 153° |
| 2026-05-08 07:20 | 39.94317 | 9.63316 | 1225 ft | 99 kts | 159° |
| 2026-05-08 07:21 | 39.93830 | 9.63790 | 1103 ft | 88 kts | 124° |
| 2026-05-08 07:21 | 39.93524 | 9.64527 | 823 ft | 93 kts | 114° |
| 2026-05-08 07:21 | 39.93225 | 9.65244 | 657 ft | 85 kts | 119° |
| 2026-05-08 07:21 | 39.92950 | 9.65880 | 489 ft | 81 kts | 115° |
| 2026-05-08 07:22 | 39.92681 | 9.66531 | 314 ft | 83 kts | 117° |
| 2026-05-08 07:22 | 39.92397 | 9.67154 | 172 ft | 77 kts | 117° |
| 2026-05-08 07:22 | 39.92130 | 9.67717 | 75 ft | 70 kts | 109° |
| 2026-05-08 07:22 | 39.91901 | 9.68253 | 29 ft | 62 kts | 117° |
| 2026-05-08 07:23 | 39.91719 | 9.68649 | 20 ft | 39 kts | 121° |
| 2026-05-08 07:23 | 39.91640 | 9.68819 | 19 ft | 16 kts | 117° |
| 2026-05-08 07:23 | 39.91619 | 9.68872 | 17 ft | 7 kts | 314° |
| 2026-05-08 07:23 | 39.91645 | 9.68814 | 19 ft | 9 kts | 300° |
| 2026-05-08 07:24 | 39.91687 | 9.68726 | 21 ft | 14 kts | 298° |
| 2026-05-08 07:24 | 39.91752 | 9.68595 | 19 ft | 20 kts | 310° |
| 2026-05-08 07:24 | 39.91822 | 9.68422 | 23 ft | 24 kts | 301° |
| 2026-05-08 07:24 | 39.91925 | 9.68225 | 23 ft | 28 kts | 303° |
| 2026-05-08 07:25 | 39.92006 | 9.68018 | 32 ft | 25 kts | 300° |
| 2026-05-08 07:25 | 39.92097 | 9.67834 | 40 ft | 21 kts | 303° |
| 2026-05-08 07:25 | 39.92200 | 9.67774 | 40 ft | 10 kts | 107° |
| 2026-05-08 07:26 | 39.92182 | 9.67817 | 40 ft | 0 kts | 195° |